Time;durP1;ratioP1;P1;durP2;ratioP2;P2;SDS_P1;SDS_P2;PMS_P1;PMS_P2;Temp;Humidity;BMP_temperature;BMP_pressure;BME280_temperature;BME280_humidity;BME280_pressure;Samples;Min_cycle;Max_cycle;Signal;HPM_P1;HPM_P2
2023/06/05 00:01:17;;;;;;;8.30;6.63;;;;;;;;;;6346897;28;20207;-56
2023/06/05 00:04:18;;;;;;;5.80;5.30;;;;;;;;;;6330688;28;20183;-57
2023/06/05 00:07:19;;;;;;;5.70;5.20;;;;;;;;;;6342743;27;20189;-57
2023/06/05 00:10:20;;;;;;;8.13;6.10;;;;;;;;;;6328779;27;20195;-57
2023/06/05 00:13:21;;;;;;;8.63;6.13;;;;;;;;;;6342427;27;20290;-57
2023/06/05 00:16:22;;;;;;;5.97;5.37;;;;;;;;;;6320165;28;20266;-57
2023/06/05 00:19:23;;;;;;;6.63;5.93;;;;;;;;;;6345353;27;20318;-57
2023/06/05 00:22:26;;;;;;;6.10;5.57;;;;;;;;;;6326865;27;20203;-57
2023/06/05 00:25:27;;;;;;;6.77;5.87;;;;;;;;;;6351985;27;20183;-57
2023/06/05 00:28:28;;;;;;;6.43;5.80;;;;;;;;;;6333386;27;20178;-57
2023/06/05 00:31:30;;;;;;;10.17;6.33;;;;;;;;;;6319087;28;20352;-57
2023/06/05 00:34:31;;;;;;;7.50;6.60;;;;;;;;;;6316993;28;20198;-57
2023/06/05 00:37:33;;;;;;;6.90;6.20;;;;;;;;;;6326164;28;20188;-57
2023/06/05 00:40:34;;;;;;;6.30;5.70;;;;;;;;;;6334968;27;20272;-57
2023/06/05 00:43:37;;;;;;;7.30;6.63;;;;;;;;;;6323880;28;20255;-57
2023/06/05 00:46:39;;;;;;;8.87;6.23;;;;;;;;;;6324442;28;20190;-57
2023/06/05 00:49:40;;;;;;;6.93;6.13;;;;;;;;;;6338200;28;20195;-57
2023/06/05 00:52:42;;;;;;;6.30;5.67;;;;;;;;;;6335091;28;20194;-57
2023/06/05 00:55:43;;;;;;;7.37;5.90;;;;;;;;;;6333847;27;20219;-57
2023/06/05 00:58:44;;;;;;;7.93;7.13;;;;;;;;;;6331179;28;20230;-57
2023/06/05 01:01:47;;;;;;;8.07;5.90;;;;;;;;;;6323352;28;20239;-57
2023/06/05 01:04:48;;;;;;;6.67;5.63;;;;;;;;;;6315240;28;20181;-57
2023/06/05 01:07:49;;;;;;;8.13;6.03;;;;;;;;;;6327164;27;20202;-57
2023/06/05 01:10:51;;;;;;;8.03;6.37;;;;;;;;;;6323226;28;20193;-57
2023/06/05 01:14:00;;;;;;;7.27;5.40;;;;;;;;;;6312210;28;20250;-57
2023/06/05 01:17:02;;;;;;;6.83;6.13;;;;;;;;;;6340081;28;20193;-57
2023/06/05 01:20:06;;;;;;;8.73;5.93;;;;;;;;;;6342428;28;20260;-57
2023/06/05 01:23:08;;;;;;;6.93;5.60;;;;;;;;;;6343255;27;20228;-57
2023/06/05 01:26:09;;;;;;;7.20;6.50;;;;;;;;;;6341584;27;20205;-57
2023/06/05 01:29:12;;;;;;;11.73;6.63;;;;;;;;;;6320413;28;20195;-57
2023/06/05 01:32:16;;;;;;;7.23;6.53;;;;;;;;;;6349896;27;20192;-57
2023/06/05 01:35:17;;;;;;;9.23;6.10;;;;;;;;;;6358182;27;20185;-57
2023/06/05 01:38:18;;;;;;;7.17;6.27;;;;;;;;;;6345916;27;20260;-57
2023/06/05 01:41:20;;;;;;;9.10;6.90;;;;;;;;;;6332605;27;20219;-57
2023/06/05 01:44:22;;;;;;;10.33;6.77;;;;;;;;;;6341576;27;20188;-57
2023/06/05 01:47:23;;;;;;;8.83;6.70;;;;;;;;;;6338483;27;20195;-57
2023/06/05 01:50:24;;;;;;;7.83;6.60;;;;;;;;;;6323837;28;20253;-57
2023/06/05 01:53:27;;;;;;;7.33;6.63;;;;;;;;;;6330294;27;20250;-57
2023/06/05 01:56:30;;;;;;;8.00;6.47;;;;;;;;;;6330880;27;20188;-57
2023/06/05 01:59:33;;;;;;;7.30;6.37;;;;;;;;;;6334460;28;20207;-57
2023/06/05 02:02:35;;;;;;;7.73;7.00;;;;;;;;;;6325556;27;20212;-57
2023/06/05 02:05:36;;;;;;;9.10;7.60;;;;;;;;;;6343933;27;20191;-57
2023/06/05 02:08:37;;;;;;;6.57;5.97;;;;;;;;;;6345075;27;20190;-57
2023/06/05 02:11:39;;;;;;;8.77;6.73;;;;;;;;;;6339833;27;20323;-57
2023/06/05 02:14:44;;;;;;;7.10;6.40;;;;;;;;;;6358054;27;20214;-57
2023/06/05 02:17:50;;;;;;;6.83;6.23;;;;;;;;;;6321060;27;20196;-57
2023/06/05 02:20:55;;;;;;;6.73;6.13;;;;;;;;;;6346968;27;20191;-57
2023/06/05 02:23:58;;;;;;;6.63;6.03;;;;;;;;;;6346622;27;20234;-57
2023/06/05 02:26:59;;;;;;;9.20;6.67;;;;;;;;;;6329777;27;20282;-57
2023/06/05 02:30:00;;;;;;;8.73;6.90;;;;;;;;;;6332549;28;20231;-57
2023/06/05 02:33:01;;;;;;;8.13;6.60;;;;;;;;;;6329328;27;20188;-57
2023/06/05 02:36:03;;;;;;;7.73;6.37;;;;;;;;;;6344248;27;20201;-57
2023/06/05 02:39:06;;;;;;;7.83;5.83;;;;;;;;;;6327810;27;20195;-57
2023/06/05 02:42:08;;;;;;;8.17;7.13;;;;;;;;;;6333956;27;20302;-57
2023/06/05 02:45:09;;;;;;;9.03;6.70;;;;;;;;;;6334843;27;20184;-57
2023/06/05 02:48:10;;;;;;;10.67;6.17;;;;;;;;;;6353045;27;20183;-57
2023/06/05 02:51:11;;;;;;;10.87;8.00;;;;;;;;;;6346166;27;20187;-57
2023/06/05 02:54:12;;;;;;;10.23;7.90;;;;;;;;;;6316338;27;20199;-57
2023/06/05 02:57:15;;;;;;;7.93;7.13;;;;;;;;;;6348493;27;20248;-57
2023/06/05 03:00:16;;;;;;;8.13;6.83;;;;;;;;;;6344664;27;20202;-57
2023/06/05 03:03:17;;;;;;;7.53;6.47;;;;;;;;;;6336496;28;20215;-57
2023/06/05 03:06:18;;;;;;;7.40;6.00;;;;;;;;;;6327132;28;20183;-57
2023/06/05 03:09:20;;;;;;;7.27;6.67;;;;;;;;;;6340795;27;20236;-57
2023/06/05 03:12:21;;;;;;;7.93;6.77;;;;;;;;;;6347998;27;20278;-58
2023/06/05 03:15:23;;;;;;;12.23;6.77;;;;;;;;;;6341720;27;20191;-58
2023/06/05 03:18:25;;;;;;;7.17;5.80;;;;;;;;;;6329570;27;20290;-58
2023/06/05 03:21:26;;;;;;;7.47;6.73;;;;;;;;;;6324486;28;20230;-58
2023/06/05 03:24:27;;;;;;;7.93;6.87;;;;;;;;;;6332784;27;20207;-59
2023/06/05 03:27:28;;;;;;;8.87;7.37;;;;;;;;;;6330414;27;20249;-58
2023/06/05 03:30:29;;;;;;;9.47;7.37;;;;;;;;;;6323056;27;20372;-59
2023/06/05 03:33:30;;;;;;;9.77;7.37;;;;;;;;;;6323315;27;20195;-59
2023/06/05 03:36:34;;;;;;;10.77;6.93;;;;;;;;;;6342418;27;20187;-59
2023/06/05 03:39:35;;;;;;;7.97;7.27;;;;;;;;;;6336935;27;20230;-59
2023/06/05 03:42:36;;;;;;;8.17;7.27;;;;;;;;;;6316021;28;20207;-59
2023/06/05 03:45:40;;;;;;;8.03;7.23;;;;;;;;;;6329327;28;20183;-59
2023/06/05 03:48:43;;;;;;;9.13;6.40;;;;;;;;;;6344921;28;20195;-59
2023/06/05 03:51:45;;;;;;;8.40;7.60;;;;;;;;;;6332370;27;20214;-59
2023/06/05 03:54:47;;;;;;;7.57;6.97;;;;;;;;;;6355764;28;20195;-59
2023/06/05 03:57:48;;;;;;;8.07;7.27;;;;;;;;;;6328015;27;20185;-59
2023/06/05 04:00:50;;;;;;;7.27;6.37;;;;;;;;;;6330177;28;20214;-59
2023/06/05 04:03:51;;;;;;;7.90;7.03;;;;;;;;;;6353523;28;20207;-59
2023/06/05 04:06:55;;;;;;;9.47;7.70;;;;;;;;;;6321195;28;20182;-59
2023/06/05 04:09:56;;;;;;;7.83;7.13;;;;;;;;;;6345222;28;20180;-57
2023/06/05 04:12:57;;;;;;;6.80;6.20;;;;;;;;;;6318654;27;20209;-59
2023/06/05 04:15:58;;;;;;;8.20;7.07;;;;;;;;;;6324651;28;20244;-59
2023/06/05 04:18:59;;;;;;;10.47;7.10;;;;;;;;;;6322091;27;20282;-59
2023/06/05 04:22:01;;;;;;;9.47;8.00;;;;;;;;;;6330616;28;20307;-59
2023/06/05 04:25:02;;;;;;;7.70;6.90;;;;;;;;;;6337464;27;20191;-58
2023/06/05 04:28:04;;;;;;;9.43;7.07;;;;;;;;;;6332887;28;20199;-57
2023/06/05 04:31:05;;;;;;;7.77;6.97;;;;;;;;;;6342225;28;20219;-58
2023/06/05 04:34:08;;;;;;;8.27;7.07;;;;;;;;;;6321402;28;20283;-59
2023/06/05 04:37:09;;;;;;;8.03;7.30;;;;;;;;;;6315211;28;20204;-58
2023/06/05 04:40:10;;;;;;;10.10;7.00;;;;;;;;;;6321595;28;20193;-59
2023/06/05 04:43:11;;;;;;;7.83;7.13;;;;;;;;;;6307065;28;20287;-58
2023/06/05 04:46:12;;;;;;;7.87;7.07;;;;;;;;;;6322142;28;20212;-59
2023/06/05 04:49:14;;;;;;;7.97;7.17;;;;;;;;;;6326179;28;20217;-58
2023/06/05 04:52:15;;;;;;;7.10;6.50;;;;;;;;;;6330398;28;20200;-59
2023/06/05 04:55:16;;;;;;;8.03;7.33;;;;;;;;;;6328563;28;20195;-59
2023/06/05 04:58:19;;;;;;;10.53;7.10;;;;;;;;;;6327220;28;20192;-59
2023/06/05 05:01:20;;;;;;;7.43;6.73;;;;;;;;;;6331275;28;20184;-59
2023/06/05 05:04:21;;;;;;;9.33;8.17;;;;;;;;;;6330729;28;20222;-59
2023/06/05 05:07:24;;;;;;;8.13;7.43;;;;;;;;;;6327177;28;20185;-59
2023/06/05 05:10:25;;;;;;;7.70;6.90;;;;;;;;;;6343572;27;20313;-59
2023/06/05 05:13:26;;;;;;;7.93;7.23;;;;;;;;;;6329503;28;20196;-59
2023/06/05 05:16:27;;;;;;;7.73;7.03;;;;;;;;;;6318699;27;20289;-59
2023/06/05 05:19:28;;;;;;;8.50;7.70;;;;;;;;;;6343134;28;20207;-59
2023/06/05 05:22:29;;;;;;;10.83;7.63;;;;;;;;;;6339519;27;20200;-60
2023/06/05 05:25:30;;;;;;;8.97;8.13;;;;;;;;;;6321442;28;20257;-59
2023/06/05 05:28:31;;;;;;;9.07;8.17;;;;;;;;;;6339949;27;20184;-59
2023/06/05 05:31:32;;;;;;;8.13;7.27;;;;;;;;;;6344680;27;20235;-59
2023/06/05 05:34:36;;;;;;;9.43;8.30;;;;;;;;;;6340203;28;20230;-58
2023/06/05 05:37:37;;;;;;;8.03;7.23;;;;;;;;;;6316640;28;20245;-58
2023/06/05 05:40:38;;;;;;;9.37;7.60;;;;;;;;;;6312092;28;20196;-58
2023/06/05 05:43:39;;;;;;;8.27;7.47;;;;;;;;;;6337216;28;20257;-58
2023/06/05 05:46:40;;;;;;;9.13;6.97;;;;;;;;;;6322236;28;20200;-58
2023/06/05 05:49:41;;;;;;;8.93;7.93;;;;;;;;;;6332057;28;20200;-58
2023/06/05 05:52:43;;;;;;;8.50;7.70;;;;;;;;;;6325036;28;20215;-58
2023/06/05 05:55:44;;;;;;;10.43;7.03;;;;;;;;;;6311822;28;20268;-58
2023/06/05 05:58:45;;;;;;;8.33;7.17;;;;;;;;;;6331428;27;20279;-58
2023/06/05 06:01:46;;;;;;;8.07;6.70;;;;;;;;;;6334588;27;20211;-58
2023/06/05 06:04:48;;;;;;;7.60;6.90;;;;;;;;;;6336160;27;20183;-58
2023/06/05 06:07:49;;;;;;;7.60;6.60;;;;;;;;;;6326346;28;20184;-58
2023/06/05 06:10:50;;;;;;;7.20;6.53;;;;;;;;;;6314906;27;20234;-58
2023/06/05 06:13:51;;;;;;;8.27;7.00;;;;;;;;;;6320795;28;20203;-58
2023/06/05 06:16:53;;;;;;;7.30;6.60;;;;;;;;;;6319259;28;20220;-58
2023/06/05 06:19:55;;;;;;;7.57;6.70;;;;;;;;;;6350804;27;20195;-59
2023/06/05 06:22:56;;;;;;;8.27;7.47;;;;;;;;;;6352594;27;20239;-59
2023/06/05 06:25:57;;;;;;;8.57;7.67;;;;;;;;;;6351647;27;20191;-57
2023/06/05 06:28:59;;;;;;;9.27;7.17;;;;;;;;;;6319732;28;20199;-57
2023/06/05 06:32:00;;;;;;;7.57;6.93;;;;;;;;;;6338748;27;20195;-58
2023/06/05 06:35:01;;;;;;;8.43;7.33;;;;;;;;;;6325132;27;20202;-57
2023/06/05 06:38:02;;;;;;;8.03;7.20;;;;;;;;;;6321948;27;20285;-58
2023/06/05 06:41:04;;;;;;;7.33;6.73;;;;;;;;;;6314723;27;20252;-58
2023/06/05 06:44:05;;;;;;;8.00;7.20;;;;;;;;;;6324483;28;20215;-57
2023/06/05 06:47:08;;;;;;;7.77;6.97;;;;;;;;;;6325554;27;20191;-57
2023/06/05 06:50:09;;;;;;;8.30;7.47;;;;;;;;;;6352390;27;20179;-59
2023/06/05 06:53:10;;;;;;;7.57;6.97;;;;;;;;;;6334135;27;20180;-58
2023/06/05 06:56:11;;;;;;;8.50;7.70;;;;;;;;;;6332094;27;20192;-58
2023/06/05 06:59:15;;;;;;;9.10;7.67;;;;;;;;;;6349268;27;20191;-58
2023/06/05 07:02:18;;;;;;;7.77;7.07;;;;;;;;;;6316915;27;20219;-58
2023/06/05 07:05:20;;;;;;;8.60;7.80;;;;;;;;;;6336570;28;20184;-58
2023/06/05 07:08:21;;;;;;;8.30;7.53;;;;;;;;;;6329542;27;20188;-58
2023/06/05 07:11:22;;;;;;;8.40;7.70;;;;;;;;;;6338602;28;20190;-58
2023/06/05 07:14:23;;;;;;;7.93;7.30;;;;;;;;;;6328849;27;20240;-58
2023/06/05 07:17:24;;;;;;;8.07;7.10;;;;;;;;;;6323335;27;20188;-58
2023/06/05 07:20:25;;;;;;;9.77;7.13;;;;;;;;;;6322471;27;20198;-58
2023/06/05 07:23:27;;;;;;;9.63;7.47;;;;;;;;;;6328045;27;20207;-58
2023/06/05 07:26:28;;;;;;;7.80;7.10;;;;;;;;;;6335704;27;20187;-57
2023/06/05 07:29:30;;;;;;;8.33;7.63;;;;;;;;;;6332960;27;20248;-57
2023/06/05 07:32:31;;;;;;;8.10;7.30;;;;;;;;;;6342540;27;20220;-58
2023/06/05 07:35:32;;;;;;;9.43;8.53;;;;;;;;;;6324488;28;20188;-57
2023/06/05 07:38:33;;;;;;;9.33;7.47;;;;;;;;;;6324900;27;20183;-57
2023/06/05 07:41:34;;;;;;;9.33;8.43;;;;;;;;;;6343129;28;20251;-57
2023/06/05 07:44:35;;;;;;;9.63;7.77;;;;;;;;;;6322782;28;20184;-57
2023/06/05 07:47:36;;;;;;;8.33;7.63;;;;;;;;;;6348361;27;20186;-57
2023/06/05 07:50:37;;;;;;;8.83;7.47;;;;;;;;;;6326307;28;20195;-58
2023/06/05 07:53:38;;;;;;;9.13;7.40;;;;;;;;;;6330123;28;20244;-58
2023/06/05 07:56:39;;;;;;;8.03;7.23;;;;;;;;;;6330715;27;20197;-58
2023/06/05 07:59:40;;;;;;;8.87;7.97;;;;;;;;;;6348077;28;20194;-58
2023/06/05 08:02:43;;;;;;;7.60;6.90;;;;;;;;;;6338523;27;20214;-58
2023/06/05 08:05:45;;;;;;;10.10;8.90;;;;;;;;;;6334242;28;20214;-58
2023/06/05 08:08:46;;;;;;;9.00;8.10;;;;;;;;;;6336989;28;20434;-58
2023/06/05 08:11:47;;;;;;;9.37;7.37;;;;;;;;;;6323874;28;20203;-58
2023/06/05 08:14:48;;;;;;;8.63;7.03;;;;;;;;;;6331178;28;20204;-59
2023/06/05 08:17:49;;;;;;;8.90;7.80;;;;;;;;;;6310925;27;20196;-59
2023/06/05 08:20:50;;;;;;;8.00;7.20;;;;;;;;;;6316785;28;20195;-58
2023/06/05 08:23:51;;;;;;;9.37;8.40;;;;;;;;;;6329591;27;20257;-58
2023/06/05 08:26:52;;;;;;;14.43;9.57;;;;;;;;;;6330167;27;20283;-58
2023/06/05 08:29:53;;;;;;;15.93;11.13;;;;;;;;;;6349065;27;20234;-57
2023/06/05 08:32:55;;;;;;;15.83;11.20;;;;;;;;;;6333225;27;20195;-57
2023/06/05 08:35:56;;;;;;;15.10;11.67;;;;;;;;;;6329103;27;20191;-57
2023/06/05 08:38:57;;;;;;;22.07;14.23;;;;;;;;;;6330432;27;20211;-57
2023/06/05 08:42:00;;;;;;;18.63;13.43;;;;;;;;;;6340605;27;20204;-57
2023/06/05 08:45:01;;;;;;;30.23;16.90;;;;;;;;;;6337920;27;20180;-57
2023/06/05 08:48:03;;;;;;;22.17;14.83;;;;;;;;;;6343430;27;20190;-57
2023/06/05 08:51:05;;;;;;;27.60;15.93;;;;;;;;;;6323702;27;20212;-57
2023/06/05 08:54:12;;;;;;;20.40;14.80;;;;;;;;;;6362210;27;20215;-57
2023/06/05 08:57:13;;;;;;;16.50;13.10;;;;;;;;;;6353943;27;20190;-56
2023/06/05 09:00:14;;;;;;;24.33;15.23;;;;;;;;;;6326478;28;20191;-56
2023/06/05 09:03:18;;;;;;;15.97;12.80;;;;;;;;;;6331603;27;20232;-57
2023/06/05 09:06:19;;;;;;;25.40;15.83;;;;;;;;;;6355477;27;20214;-56
2023/06/05 09:09:20;;;;;;;26.67;16.23;;;;;;;;;;6334714;27;20180;-57
2023/06/05 09:12:21;;;;;;;27.17;17.03;;;;;;;;;;6333205;27;20208;-57
2023/06/05 09:15:26;;;;;;;18.10;14.10;;;;;;;;;;6331817;27;20251;-57
2023/06/05 09:18:28;;;;;;;22.40;15.10;;;;;;;;;;6354973;27;20274;-57
2023/06/05 09:21:32;;;;;;;34.00;18.43;;;;;;;;;;6352649;27;20278;-56
2023/06/05 09:24:34;;;;;;;18.27;13.57;;;;;;;;;;6339127;27;20270;-57
2023/06/05 09:27:35;;;;;;;17.70;12.93;;;;;;;;;;6339504;28;20194;-57
2023/06/05 09:30:54;;;;;;;18.00;12.80;;;;;;;;;;6332684;27;20231;-57
2023/06/05 09:33:56;;;;;;;15.53;11.37;;;;;;;;;;6339720;27;20191;-57
2023/06/05 09:36:58;;;;;;;20.73;15.03;;;;;;;;;;6325377;27;20202;-57
2023/06/05 09:39:59;;;;;;;21.23;15.23;;;;;;;;;;6346802;27;20274;-57
2023/06/05 09:43:00;;;;;;;17.73;12.93;;;;;;;;;;6340260;27;20214;-57
2023/06/05 09:46:07;;;;;;;15.57;12.00;;;;;;;;;;6326934;28;20284;-57
2023/06/05 09:49:08;;;;;;;28.43;15.47;;;;;;;;;;6336942;27;20203;-57
2023/06/05 09:52:10;;;;;;;40.67;19.93;;;;;;;;;;6321621;27;20195;-57
2023/06/05 09:55:11;;;;;;;19.07;16.10;;;;;;;;;;6339191;28;20188;-57
2023/06/05 09:58:14;;;;;;;19.03;14.97;;;;;;;;;;6340540;27;20196;-57
2023/06/05 10:01:16;;;;;;;16.20;14.33;;;;;;;;;;6314921;27;20222;-57
2023/06/05 10:04:20;;;;;;;16.90;12.50;;;;;;;;;;6337958;28;20212;-57
2023/06/05 10:07:21;;;;;;;18.67;14.33;;;;;;;;;;6342638;27;20187;-57
2023/06/05 10:10:22;;;;;;;25.60;17.07;;;;;;;;;;6330540;28;20181;-57
2023/06/05 10:13:23;;;;;;;24.47;14.33;;;;;;;;;;6338937;27;20184;-57
2023/06/05 10:16:26;;;;;;;19.20;14.80;;;;;;;;;;6341620;28;20180;-57
2023/06/05 10:19:27;;;;;;;16.77;13.20;;;;;;;;;;6335534;27;20180;-57
2023/06/05 10:22:28;;;;;;;15.10;12.43;;;;;;;;;;6332687;27;20298;-57
2023/06/05 10:25:30;;;;;;;18.23;14.50;;;;;;;;;;6315190;27;20184;-57
2023/06/05 10:28:34;;;;;;;12.87;10.50;;;;;;;;;;6327513;27;20183;-57
2023/06/05 10:31:40;;;;;;;16.40;11.63;;;;;;;;;;6331324;27;20318;-57
2023/06/05 10:35:06;;;;;;;20.90;14.33;;;;;;;;;;6341394;28;20210;-56
2023/06/05 10:38:17;;;;;;;14.63;11.50;;;;;;;;;;6333426;27;20184;-57
2023/06/05 10:41:19;;;;;;;26.03;13.93;;;;;;;;;;6342108;27;20194;-57
2023/06/05 10:44:38;;;;;;;17.33;11.83;;;;;;;;;;6339451;27;20194;-57
2023/06/05 10:47:39;;;;;;;12.33;10.47;;;;;;;;;;6355493;27;20185;-57
2023/06/05 10:50:40;;;;;;;26.33;13.73;;;;;;;;;;6351254;27;20208;-57
2023/06/05 10:53:42;;;;;;;21.40;14.77;;;;;;;;;;6349577;27;20188;-56
2023/06/05 10:56:53;;;;;;;11.00;9.87;;;;;;;;;;6342147;27;20259;-57
2023/06/05 11:00:10;;;;;;;13.70;10.93;;;;;;;;;;6332785;28;20283;-57
2023/06/05 11:03:11;;;;;;;18.33;11.87;;;;;;;;;;6347329;27;20211;-57
2023/06/05 11:06:13;;;;;;;17.83;10.90;;;;;;;;;;6315363;28;20187;-57
2023/06/05 11:09:14;;;;;;;12.70;11.30;;;;;;;;;;6329059;27;20199;-57
2023/06/05 11:12:15;;;;;;;13.90;10.47;;;;;;;;;;6343619;27;20269;-57
2023/06/05 11:15:34;;;;;;;14.73;10.50;;;;;;;;;;6338324;28;20282;-57
2023/06/05 11:18:35;;;;;;;26.37;11.47;;;;;;;;;;6344597;27;20282;-57
2023/06/05 11:21:55;;;;;;;12.80;11.00;;;;;;;;;;6340778;28;20257;-56
2023/06/05 11:25:15;;;;;;;22.20;13.27;;;;;;;;;;6343353;28;20271;-57
2023/06/05 11:28:36;;;;;;;22.93;13.30;;;;;;;;;;6340603;27;20216;-57
2023/06/05 11:31:37;;;;;;;22.63;13.60;;;;;;;;;;6340592;27;20258;-57
2023/06/05 11:34:39;;;;;;;16.40;11.97;;;;;;;;;;6337327;27;20192;-57
2023/06/05 11:37:40;;;;;;;18.50;12.53;;;;;;;;;;6360157;27;20199;-56
2023/06/05 11:40:42;;;;;;;28.83;15.40;;;;;;;;;;6346375;27;20187;-55
2023/06/05 11:43:43;;;;;;;26.77;14.57;;;;;;;;;;6336558;28;20213;-57
2023/06/05 11:46:45;;;;;;;20.43;12.27;;;;;;;;;;6342983;27;20198;-57
2023/06/05 11:49:46;;;;;;;15.43;11.93;;;;;;;;;;6340102;27;20194;-56
2023/06/05 11:52:47;;;;;;;17.83;9.70;;;;;;;;;;6352247;28;20182;-57
2023/06/05 11:58:51;;;;;;;20.73;11.53;;;;;;;;;;6347597;28;20199;-56
2023/06/05 12:01:54;;;;;;;20.50;11.73;;;;;;;;;;6334529;27;20207;-56
2023/06/05 12:04:55;;;;;;;12.73;10.60;;;;;;;;;;6345725;27;20186;-55
2023/06/05 12:07:56;;;;;;;18.00;11.27;;;;;;;;;;6333301;27;20196;-57
2023/06/05 12:10:57;;;;;;;13.57;10.50;;;;;;;;;;6330874;27;20198;-57
2023/06/05 12:13:58;;;;;;;11.03;9.80;;;;;;;;;;6345121;27;20226;-57
2023/06/05 12:16:59;;;;;;;16.47;11.80;;;;;;;;;;6328400;27;20282;-57
2023/06/05 12:20:01;;;;;;;11.50;9.97;;;;;;;;;;6349571;27;20188;-57
2023/06/05 12:23:02;;;;;;;10.90;9.80;;;;;;;;;;6343502;28;20220;-56
2023/06/05 12:26:03;;;;;;;14.20;9.97;;;;;;;;;;6330849;27;20187;-56
2023/06/05 12:29:05;;;;;;;15.77;9.53;;;;;;;;;;6340912;27;20184;-56
2023/06/05 12:32:26;;;;;;;12.73;9.63;;;;;;;;;;6352267;27;20188;-57
2023/06/05 12:35:27;;;;;;;13.17;9.67;;;;;;;;;;6352699;27;20190;-57
2023/06/05 12:38:28;;;;;;;15.83;9.33;;;;;;;;;;6336789;27;20190;-57
2023/06/05 12:41:29;;;;;;;9.63;8.63;;;;;;;;;;6323244;27;20340;-57
2023/06/05 12:44:30;;;;;;;12.37;10.03;;;;;;;;;;6322059;27;20286;-57
2023/06/05 12:47:31;;;;;;;11.27;9.30;;;;;;;;;;6332488;28;20196;-57
2023/06/05 12:50:33;;;;;;;17.00;9.40;;;;;;;;;;6330386;27;20252;-57
2023/06/05 12:53:34;;;;;;;15.47;10.27;;;;;;;;;;6349667;27;20194;-57
2023/06/05 12:56:35;;;;;;;11.07;8.27;;;;;;;;;;6337487;27;21884;-57
2023/06/05 12:59:36;;;;;;;15.17;9.93;;;;;;;;;;6328720;27;20191;-57
2023/06/05 13:02:38;;;;;;;11.63;8.20;;;;;;;;;;6354814;27;20211;-57
2023/06/05 13:05:39;;;;;;;14.33;8.47;;;;;;;;;;6348986;27;20247;-57
2023/06/05 13:08:40;;;;;;;11.00;9.27;;;;;;;;;;6343332;27;20184;-56
2023/06/05 13:11:41;;;;;;;10.97;8.33;;;;;;;;;;6320570;28;20188;-57
2023/06/05 13:14:42;;;;;;;15.90;9.87;;;;;;;;;;6343402;27;20183;-57
2023/06/05 13:17:45;;;;;;;12.47;9.43;;;;;;;;;;6325919;27;20281;-57
2023/06/05 13:20:47;;;;;;;19.47;10.73;;;;;;;;;;6342916;27;20209;-57
2023/06/05 13:23:48;;;;;;;12.03;9.20;;;;;;;;;;6339496;27;20399;-57
2023/06/05 13:26:49;;;;;;;9.83;8.70;;;;;;;;;;6351703;27;20190;-56
2023/06/05 13:29:50;;;;;;;17.23;10.50;;;;;;;;;;6328798;27;20227;-57
2023/06/05 13:32:52;;;;;;;14.37;9.77;;;;;;;;;;6323064;27;20204;-56
2023/06/05 13:35:56;;;;;;;15.63;10.77;;;;;;;;;;6332153;27;20216;-56
2023/06/05 13:38:57;;;;;;;16.27;10.33;;;;;;;;;;6354670;27;20196;-56
2023/06/05 13:41:58;;;;;;;18.90;11.97;;;;;;;;;;6327651;27;20220;-56
2023/06/05 13:44:59;;;;;;;19.73;12.00;;;;;;;;;;6339221;27;20193;-55
2023/06/05 13:48:00;;;;;;;14.60;10.77;;;;;;;;;;6335419;27;20188;-56
2023/06/05 13:51:01;;;;;;;15.43;10.97;;;;;;;;;;6333243;28;20213;-57
2023/06/05 13:54:02;;;;;;;14.10;10.07;;;;;;;;;;6341807;27;20277;-55
2023/06/05 13:57:04;;;;;;;19.17;11.40;;;;;;;;;;6327782;27;20241;-57
2023/06/05 14:00:05;;;;;;;24.93;13.23;;;;;;;;;;6347227;27;20221;-57
2023/06/05 14:03:06;;;;;;;18.77;12.27;;;;;;;;;;6347471;27;20298;-56
2023/06/05 14:06:07;;;;;;;24.90;14.87;;;;;;;;;;6334791;27;20247;-57
2023/06/05 14:09:08;;;;;;;16.70;12.80;;;;;;;;;;6333745;27;20183;-57
2023/06/05 14:12:09;;;;;;;19.80;13.97;;;;;;;;;;6349678;27;20191;-57
2023/06/05 14:15:11;;;;;;;18.67;13.43;;;;;;;;;;6335314;27;20230;-57
2023/06/05 14:18:13;;;;;;;23.00;14.83;;;;;;;;;;6334405;27;20308;-55
2023/06/05 14:21:14;;;;;;;14.53;12.37;;;;;;;;;;6332628;27;20199;-54
2023/06/05 14:24:15;;;;;;;12.70;11.03;;;;;;;;;;6321008;28;20241;-56
2023/06/05 14:27:18;;;;;;;21.93;14.37;;;;;;;;;;6336079;27;20190;-57
2023/06/05 14:30:19;;;;;;;24.77;14.80;;;;;;;;;;6328671;28;20236;-56
2023/06/05 14:33:20;;;;;;;28.70;15.83;;;;;;;;;;6340522;27;20205;-56
2023/06/05 14:36:21;;;;;;;20.50;13.43;;;;;;;;;;6327988;27;20192;-55
2023/06/05 14:39:24;;;;;;;22.73;14.60;;;;;;;;;;6333166;27;20199;-56
2023/06/05 14:42:25;;;;;;;15.63;13.70;;;;;;;;;;6338212;27;20211;-56
2023/06/05 14:45:26;;;;;;;25.07;15.47;;;;;;;;;;6354184;27;20243;-56
2023/06/05 14:48:27;;;;;;;24.23;15.30;;;;;;;;;;6326998;27;20195;-55
2023/06/05 14:51:29;;;;;;;22.53;15.27;;;;;;;;;;6334693;27;20195;-56
2023/06/05 14:54:30;;;;;;;27.60;16.77;;;;;;;;;;6349137;27;20187;-56
2023/06/05 14:57:32;;;;;;;20.70;14.13;;;;;;;;;;6345385;27;20186;-56
2023/06/05 15:00:33;;;;;;;16.30;13.40;;;;;;;;;;6350372;27;20195;-56
2023/06/05 15:03:34;;;;;;;18.50;12.73;;;;;;;;;;6340170;27;20218;-56
2023/06/05 15:06:35;;;;;;;26.63;14.97;;;;;;;;;;6339948;27;20209;-56
2023/06/05 15:09:36;;;;;;;20.77;14.03;;;;;;;;;;6337390;27;20187;-55
2023/06/05 15:12:37;;;;;;;26.20;14.20;;;;;;;;;;6333203;27;20202;-53
2023/06/05 15:15:38;;;;;;;25.93;13.50;;;;;;;;;;6335914;27;20189;-57
2023/06/05 15:18:39;;;;;;;19.17;12.43;;;;;;;;;;6338847;27;20197;-54
2023/06/05 15:21:40;;;;;;;29.57;14.93;;;;;;;;;;6330335;27;20196;-52
2023/06/05 15:24:41;;;;;;;16.13;12.03;;;;;;;;;;6356668;27;20206;-52
2023/06/05 15:27:42;;;;;;;14.57;11.33;;;;;;;;;;6330016;27;20260;-51
2023/06/05 15:30:44;;;;;;;11.97;10.73;;;;;;;;;;6316040;27;20243;-53
2023/06/05 15:33:45;;;;;;;15.27;13.00;;;;;;;;;;6344970;27;20192;-50
2023/06/05 15:36:46;;;;;;;21.97;13.40;;;;;;;;;;6325375;27;20286;-53
2023/06/05 15:39:47;;;;;;;15.77;12.50;;;;;;;;;;6359316;27;20199;-54
2023/06/05 15:43:11;;;;;;;21.07;12.93;;;;;;;;;;6332452;27;20264;-56
2023/06/05 15:46:12;;;;;;;18.30;12.17;;;;;;;;;;6339866;28;20191;-55
2023/06/05 15:49:13;;;;;;;16.80;12.60;;;;;;;;;;6327501;27;20191;-50
2023/06/05 15:52:14;;;;;;;13.17;10.93;;;;;;;;;;6331406;28;20191;-52
2023/06/05 15:55:15;;;;;;;15.17;12.50;;;;;;;;;;6322576;28;20214;-54
2023/06/05 15:58:17;;;;;;;21.43;14.20;;;;;;;;;;6331663;27;20192;-54
2023/06/05 16:01:18;;;;;;;23.93;13.90;;;;;;;;;;6331095;27;20202;-53
2023/06/05 16:04:19;;;;;;;19.43;12.33;;;;;;;;;;6323869;27;20212;-53
2023/06/05 16:07:21;;;;;;;16.87;12.03;;;;;;;;;;6330098;27;20190;-52
2023/06/05 16:10:22;;;;;;;20.97;12.80;;;;;;;;;;6332132;28;20211;-52
2023/06/05 16:13:23;;;;;;;19.83;13.60;;;;;;;;;;6344441;28;20241;-50
2023/06/05 16:16:24;;;;;;;17.73;12.80;;;;;;;;;;6328214;27;20187;-52
2023/06/05 16:19:25;;;;;;;14.80;12.23;;;;;;;;;;6346744;27;20186;-52
2023/06/05 16:22:26;;;;;;;14.70;12.00;;;;;;;;;;6340506;28;20353;-54
2023/06/05 16:25:27;;;;;;;17.67;12.87;;;;;;;;;;6336990;27;20187;-54
2023/06/05 16:28:28;;;;;;;17.17;11.70;;;;;;;;;;6352444;28;20184;-51
2023/06/05 16:31:30;;;;;;;19.90;13.53;;;;;;;;;;6346689;28;20232;-56
2023/06/05 16:34:31;;;;;;;24.47;14.57;;;;;;;;;;6333629;28;20218;-55
2023/06/05 16:37:32;;;;;;;28.33;16.43;;;;;;;;;;6338524;27;20196;-54
2023/06/05 16:40:33;;;;;;;19.03;13.30;;;;;;;;;;6331674;27;20192;-50
2023/06/05 16:43:34;;;;;;;19.13;12.93;;;;;;;;;;6321082;28;20229;-54
2023/06/05 16:46:35;;;;;;;20.77;13.90;;;;;;;;;;6330601;28;20184;-52
2023/06/05 16:49:37;;;;;;;18.53;13.23;;;;;;;;;;6346367;27;20206;-55
2023/06/05 16:52:38;;;;;;;17.23;13.13;;;;;;;;;;6359679;27;20183;-52
2023/06/05 16:55:39;;;;;;;19.47;13.13;;;;;;;;;;6331316;28;20196;-52
2023/06/05 16:58:41;;;;;;;19.43;13.00;;;;;;;;;;6337670;27;20286;-48
2023/06/05 17:01:43;;;;;;;24.67;15.70;;;;;;;;;;6344684;27;20198;-51
2023/06/05 17:04:44;;;;;;;27.43;15.77;;;;;;;;;;6338555;27;20188;-49
2023/06/05 17:07:45;;;;;;;24.50;15.30;;;;;;;;;;6339995;27;20253;-52
2023/06/05 17:10:47;;;;;;;25.10;14.73;;;;;;;;;;6329661;28;20380;-50
2023/06/05 17:13:48;;;;;;;27.17;13.37;;;;;;;;;;6334026;27;20286;-50
2023/06/05 17:16:49;;;;;;;24.80;14.37;;;;;;;;;;6338083;27;20229;-51
2023/06/05 17:19:50;;;;;;;23.83;14.07;;;;;;;;;;6347981;27;20195;-51
2023/06/05 17:22:52;;;;;;;16.63;14.07;;;;;;;;;;6341983;27;20210;-47
2023/06/05 17:25:53;;;;;;;17.17;12.13;;;;;;;;;;6348140;27;20235;-52
2023/06/05 17:28:57;;;;;;;21.63;13.40;;;;;;;;;;6333003;27;20196;-54
2023/06/05 17:31:58;;;;;;;15.43;12.03;;;;;;;;;;6346169;27;20247;-52
2023/06/05 17:34:59;;;;;;;13.23;11.83;;;;;;;;;;6330947;27;20199;-54
2023/06/05 17:38:00;;;;;;;15.57;11.57;;;;;;;;;;6353219;27;20199;-54
2023/06/05 17:41:01;;;;;;;18.07;12.13;;;;;;;;;;6353387;27;20191;-53
2023/06/05 17:44:03;;;;;;;18.13;13.20;;;;;;;;;;6345708;27;20266;-55
2023/06/05 17:47:04;;;;;;;23.13;13.97;;;;;;;;;;6357271;27;20189;-55
2023/06/05 17:50:05;;;;;;;20.93;14.13;;;;;;;;;;6326968;27;20210;-52
2023/06/05 17:53:07;;;;;;;26.97;15.37;;;;;;;;;;6334014;28;20207;-55
2023/06/05 17:56:08;;;;;;;21.60;14.20;;;;;;;;;;6333465;27;20204;-54